sensor_id;sensor_type;location;lat;lon;timestamp;P1;durP1;ratioP1;P2;durP2;ratioP2
33724;SDS011;20056;0.000;0.000;2022-12-18T00:00:28;5.28;;;2.35;;
33724;SDS011;20056;0.000;0.000;2022-12-18T00:02:55;6.38;;;2.30;;
33724;SDS011;20056;0.000;0.000;2022-12-18T00:05:20;4.95;;;2.55;;
33724;SDS011;20056;0.000;0.000;2022-12-18T00:07:46;4.80;;;2.60;;
33724;SDS011;20056;0.000;0.000;2022-12-18T00:10:11;6.63;;;3.13;;
33724;SDS011;20056;0.000;0.000;2022-12-18T00:12:37;4.80;;;3.10;;
33724;SDS011;20056;0.000;0.000;2022-12-18T00:15:02;6.00;;;2.88;;
33724;SDS011;20056;0.000;0.000;2022-12-18T00:17:28;3.85;;;2.53;;
33724;SDS011;20056;0.000;0.000;2022-12-18T00:19:54;3.17;;;2.40;;
33724;SDS011;20056;0.000;0.000;2022-12-18T00:22:19;6.63;;;2.75;;
33724;SDS011;20056;0.000;0.000;2022-12-18T00:24:45;3.67;;;2.17;;
33724;SDS011;20056;0.000;0.000;2022-12-18T00:27:10;4.60;;;2.50;;
33724;SDS011;20056;0.000;0.000;2022-12-18T00:29:36;3.53;;;2.45;;
33724;SDS011;20056;0.000;0.000;2022-12-18T00:32:01;4.90;;;2.28;;
33724;SDS011;20056;0.000;0.000;2022-12-18T00:34:27;4.22;;;2.60;;
33724;SDS011;20056;0.000;0.000;2022-12-18T00:36:52;3.90;;;2.42;;
33724;SDS011;20056;0.000;0.000;2022-12-18T00:39:18;8.52;;;2.88;;
33724;SDS011;20056;0.000;0.000;2022-12-18T00:41:43;5.53;;;2.60;;
33724;SDS011;20056;0.000;0.000;2022-12-18T06:03:27;8.20;;;3.05;;
33724;SDS011;20056;0.000;0.000;2022-12-18T06:05:53;6.07;;;2.67;;
33724;SDS011;20056;0.000;0.000;2022-12-18T06:08:18;4.63;;;2.90;;
33724;SDS011;20056;0.000;0.000;2022-12-18T06:10:49;7.57;;;2.88;;
33724;SDS011;20056;0.000;0.000;2022-12-18T06:13:16;7.05;;;3.42;;
33724;SDS011;20056;0.000;0.000;2022-12-18T06:15:42;4.65;;;2.45;;
33724;SDS011;20056;0.000;0.000;2022-12-18T06:18:07;4.72;;;2.65;;
33724;SDS011;20056;0.000;0.000;2022-12-18T06:20:33;4.55;;;2.88;;
33724;SDS011;20056;0.000;0.000;2022-12-18T06:22:58;3.65;;;2.25;;
33724;SDS011;20056;0.000;0.000;2022-12-18T06:25:24;4.53;;;2.80;;
33724;SDS011;20056;0.000;0.000;2022-12-18T06:27:50;3.90;;;2.60;;
33724;SDS011;20056;0.000;0.000;2022-12-18T06:30:15;4.68;;;2.53;;
33724;SDS011;20056;0.000;0.000;2022-12-18T06:32:41;3.47;;;2.30;;
33724;SDS011;20056;0.000;0.000;2022-12-18T06:35:06;4.82;;;2.83;;
33724;SDS011;20056;0.000;0.000;2022-12-18T06:37:32;6.20;;;3.28;;
33724;SDS011;20056;0.000;0.000;2022-12-18T06:39:57;4.47;;;2.83;;
33724;SDS011;20056;0.000;0.000;2022-12-18T06:42:23;4.07;;;2.50;;
33724;SDS011;20056;0.000;0.000;2022-12-18T06:44:49;3.42;;;2.35;;
33724;SDS011;20056;0.000;0.000;2022-12-18T06:47:15;5.75;;;2.40;;
33724;SDS011;20056;0.000;0.000;2022-12-18T06:49:41;4.05;;;2.30;;
33724;SDS011;20056;0.000;0.000;2022-12-18T06:52:06;4.03;;;2.42;;
33724;SDS011;20056;0.000;0.000;2022-12-18T06:54:32;4.38;;;2.30;;
33724;SDS011;20056;0.000;0.000;2022-12-18T06:56:57;6.30;;;2.33;;
33724;SDS011;20056;0.000;0.000;2022-12-18T06:59:23;4.22;;;2.42;;
33724;SDS011;20056;0.000;0.000;2022-12-18T07:01:48;8.20;;;2.67;;
33724;SDS011;20056;0.000;0.000;2022-12-18T07:04:14;3.40;;;2.03;;
33724;SDS011;20056;0.000;0.000;2022-12-18T07:06:39;5.43;;;2.40;;
33724;SDS011;20056;0.000;0.000;2022-12-18T07:09:05;6.70;;;2.92;;
33724;SDS011;20056;0.000;0.000;2022-12-18T07:11:32;4.28;;;2.90;;
33724;SDS011;20056;0.000;0.000;2022-12-18T07:13:58;6.28;;;4.05;;
33724;SDS011;20056;0.000;0.000;2022-12-18T07:16:23;6.22;;;3.70;;
33724;SDS011;20056;0.000;0.000;2022-12-18T07:18:49;9.93;;;4.93;;
33724;SDS011;20056;0.000;0.000;2022-12-18T07:21:15;8.20;;;4.43;;
33724;SDS011;20056;0.000;0.000;2022-12-18T07:23:43;10.80;;;5.13;;
33724;SDS011;20056;0.000;0.000;2022-12-18T07:26:11;11.73;;;4.20;;
33724;SDS011;20056;0.000;0.000;2022-12-18T07:28:38;9.35;;;4.97;;
33724;SDS011;20056;0.000;0.000;2022-12-18T07:31:05;13.20;;;5.35;;
33724;SDS011;20056;0.000;0.000;2022-12-18T07:33:33;8.43;;;4.88;;
33724;SDS011;20056;0.000;0.000;2022-12-18T07:35:59;11.23;;;5.63;;
33724;SDS011;20056;0.000;0.000;2022-12-18T07:38:26;13.43;;;6.32;;
33724;SDS011;20056;0.000;0.000;2022-12-18T07:40:51;9.05;;;5.80;;
33724;SDS011;20056;0.000;0.000;2022-12-18T07:43:17;11.80;;;7.57;;
33724;SDS011;20056;0.000;0.000;2022-12-18T07:45:43;10.57;;;7.00;;
33724;SDS011;20056;0.000;0.000;2022-12-18T07:48:08;13.30;;;7.82;;
33724;SDS011;20056;0.000;0.000;2022-12-18T07:50:34;11.15;;;7.40;;
33724;SDS011;20056;0.000;0.000;2022-12-18T07:52:59;11.13;;;7.45;;
33724;SDS011;20056;0.000;0.000;2022-12-18T07:55:28;13.88;;;7.85;;
33724;SDS011;20056;0.000;0.000;2022-12-18T07:57:54;12.52;;;7.93;;
33724;SDS011;20056;0.000;0.000;2022-12-18T08:00:20;14.00;;;7.63;;
33724;SDS011;20056;0.000;0.000;2022-12-18T08:02:46;12.30;;;8.38;;
33724;SDS011;20056;0.000;0.000;2022-12-18T08:05:11;10.48;;;7.47;;
33724;SDS011;20056;0.000;0.000;2022-12-18T08:07:37;13.55;;;8.70;;
33724;SDS011;20056;0.000;0.000;2022-12-18T08:10:02;11.55;;;7.90;;
33724;SDS011;20056;0.000;0.000;2022-12-18T08:12:28;10.90;;;7.15;;
33724;SDS011;20056;0.000;0.000;2022-12-18T08:14:54;11.38;;;6.72;;
33724;SDS011;20056;0.000;0.000;2022-12-18T08:17:19;10.02;;;7.35;;
33724;SDS011;20056;0.000;0.000;2022-12-18T08:19:45;11.20;;;6.55;;
33724;SDS011;20056;0.000;0.000;2022-12-18T08:22:10;10.10;;;6.65;;
33724;SDS011;20056;0.000;0.000;2022-12-18T08:24:36;26.50;;;16.70;;
33724;SDS011;20056;0.000;0.000;2022-12-18T08:27:01;23.42;;;14.60;;
33724;SDS011;20056;0.000;0.000;2022-12-18T08:29:27;23.33;;;16.00;;
33724;SDS011;20056;0.000;0.000;2022-12-18T08:31:53;23.95;;;17.20;;
33724;SDS011;20056;0.000;0.000;2022-12-18T08:34:18;21.90;;;16.23;;
33724;SDS011;20056;0.000;0.000;2022-12-18T08:36:44;24.13;;;15.90;;
33724;SDS011;20056;0.000;0.000;2022-12-18T08:39:09;22.83;;;15.73;;
33724;SDS011;20056;0.000;0.000;2022-12-18T08:41:35;25.50;;;17.27;;
33724;SDS011;20056;0.000;0.000;2022-12-18T08:44:00;24.83;;;16.52;;
33724;SDS011;20056;0.000;0.000;2022-12-18T08:46:45;24.35;;;16.08;;
33724;SDS011;20056;0.000;0.000;2022-12-18T08:49:10;23.63;;;16.20;;
33724;SDS011;20056;0.000;0.000;2022-12-18T08:51:37;26.10;;;17.23;;
33724;SDS011;20056;0.000;0.000;2022-12-18T08:54:04;23.75;;;17.23;;
33724;SDS011;20056;0.000;0.000;2022-12-18T08:56:30;28.05;;;18.88;;
33724;SDS011;20056;0.000;0.000;2022-12-18T08:58:56;26.25;;;18.27;;
33724;SDS011;20056;0.000;0.000;2022-12-18T09:01:22;32.42;;;17.33;;
33724;SDS011;20056;0.000;0.000;2022-12-18T09:03:49;21.23;;;12.40;;
33724;SDS011;20056;0.000;0.000;2022-12-18T09:06:15;20.00;;;13.15;;
33724;SDS011;20056;0.000;0.000;2022-12-18T09:08:43;22.77;;;14.45;;
33724;SDS011;20056;0.000;0.000;2022-12-18T09:11:19;16.17;;;11.43;;
33724;SDS011;20056;0.000;0.000;2022-12-18T09:13:47;13.88;;;10.43;;
33724;SDS011;20056;0.000;0.000;2022-12-18T09:16:13;18.33;;;11.45;;
33724;SDS011;20056;0.000;0.000;2022-12-18T09:18:38;19.10;;;11.82;;
33724;SDS011;20056;0.000;0.000;2022-12-18T09:21:08;13.80;;;8.93;;
33724;SDS011;20056;0.000;0.000;2022-12-18T09:23:38;13.50;;;9.57;;
33724;SDS011;20056;0.000;0.000;2022-12-18T09:26:03;18.27;;;12.25;;
33724;SDS011;20056;0.000;0.000;2022-12-18T09:28:29;10.52;;;7.68;;
33724;SDS011;20056;0.000;0.000;2022-12-18T09:30:55;12.60;;;8.93;;
33724;SDS011;20056;0.000;0.000;2022-12-18T09:33:20;15.35;;;9.93;;
33724;SDS011;20056;0.000;0.000;2022-12-18T09:35:46;11.18;;;6.55;;
33724;SDS011;20056;0.000;0.000;2022-12-18T09:38:12;9.35;;;6.50;;
33724;SDS011;20056;0.000;0.000;2022-12-18T09:40:44;12.13;;;8.85;;
33724;SDS011;20056;0.000;0.000;2022-12-18T09:43:19;11.60;;;7.25;;
33724;SDS011;20056;0.000;0.000;2022-12-18T09:45:55;11.07;;;6.53;;
33724;SDS011;20056;0.000;0.000;2022-12-18T09:48:26;9.07;;;6.20;;
33724;SDS011;20056;0.000;0.000;2022-12-18T09:51:00;10.63;;;6.65;;
33724;SDS011;20056;0.000;0.000;2022-12-18T09:53:31;10.82;;;7.35;;
33724;SDS011;20056;0.000;0.000;2022-12-18T09:56:01;10.55;;;6.32;;
33724;SDS011;20056;0.000;0.000;2022-12-18T10:00:58;9.45;;;5.68;;
33724;SDS011;20056;0.000;0.000;2022-12-18T10:03:24;8.75;;;5.78;;
33724;SDS011;20056;0.000;0.000;2022-12-18T10:14:17;10.10;;;6.18;;
33724;SDS011;20056;0.000;0.000;2022-12-18T10:17:07;8.45;;;5.63;;
33724;SDS011;20056;0.000;0.000;2022-12-18T10:19:51;10.38;;;5.90;;
33724;SDS011;20056;0.000;0.000;2022-12-18T10:22:20;11.68;;;6.10;;
33724;SDS011;20056;0.000;0.000;2022-12-18T10:27:29;8.27;;;4.95;;
33724;SDS011;20056;0.000;0.000;2022-12-18T10:29:56;8.55;;;4.80;;
33724;SDS011;20056;0.000;0.000;2022-12-18T10:32:23;7.82;;;3.97;;
33724;SDS011;20056;0.000;0.000;2022-12-18T10:34:52;7.22;;;4.47;;
33724;SDS011;20056;0.000;0.000;2022-12-18T10:37:21;7.88;;;4.20;;
33724;SDS011;20056;0.000;0.000;2022-12-18T10:40:08;10.13;;;4.97;;
33724;SDS011;20056;0.000;0.000;2022-12-18T10:42:39;9.88;;;4.72;;
33724;SDS011;20056;0.000;0.000;2022-12-18T10:45:09;7.80;;;4.90;;
33724;SDS011;20056;0.000;0.000;2022-12-18T10:47:40;9.45;;;4.47;;
33724;SDS011;20056;0.000;0.000;2022-12-18T10:50:17;8.65;;;5.03;;
33724;SDS011;20056;0.000;0.000;2022-12-18T10:52:57;7.38;;;4.72;;
33724;SDS011;20056;0.000;0.000;2022-12-18T10:55:25;8.63;;;5.00;;
33724;SDS011;20056;0.000;0.000;2022-12-18T10:57:56;10.07;;;4.53;;
33724;SDS011;20056;0.000;0.000;2022-12-18T11:01:12;18.23;;;6.18;;
33724;SDS011;20056;0.000;0.000;2022-12-18T11:03:39;7.35;;;4.95;;
33724;SDS011;20056;0.000;0.000;2022-12-18T11:06:23;9.48;;;4.85;;
33724;SDS011;20056;0.000;0.000;2022-12-18T11:09:00;9.32;;;5.00;;
33724;SDS011;20056;0.000;0.000;2022-12-18T11:11:27;9.82;;;4.38;;
33724;SDS011;20056;0.000;0.000;2022-12-18T11:14:04;9.25;;;5.03;;
33724;SDS011;20056;0.000;0.000;2022-12-18T11:16:36;8.00;;;5.30;;
33724;SDS011;20056;0.000;0.000;2022-12-18T11:19:49;7.68;;;5.28;;
33724;SDS011;20056;0.000;0.000;2022-12-18T11:21:56;9.50;;;5.10;;
33724;SDS011;20056;0.000;0.000;2022-12-18T11:26:54;9.10;;;5.10;;
33724;SDS011;20056;0.000;0.000;2022-12-18T11:29:33;7.57;;;4.30;;
33724;SDS011;20056;0.000;0.000;2022-12-18T11:35:01;7.07;;;5.28;;
33724;SDS011;20056;0.000;0.000;2022-12-18T11:37:37;7.22;;;4.72;;
33724;SDS011;20056;0.000;0.000;2022-12-18T11:40:10;7.80;;;4.88;;
33724;SDS011;20056;0.000;0.000;2022-12-18T11:42:42;7.63;;;4.53;;
33724;SDS011;20056;0.000;0.000;2022-12-18T11:47:52;8.18;;;4.50;;
33724;SDS011;20056;0.000;0.000;2022-12-18T11:52:57;7.88;;;5.20;;
33724;SDS011;20056;0.000;0.000;2022-12-18T12:01:18;6.75;;;4.63;;
33724;SDS011;20056;0.000;0.000;2022-12-18T12:06:44;10.68;;;4.63;;
33724;SDS011;20056;0.000;0.000;2022-12-18T12:09:25;6.65;;;4.47;;
33724;SDS011;20056;0.000;0.000;2022-12-18T12:31:05;12.55;;;8.90;;
33724;SDS011;20056;0.000;0.000;2022-12-18T12:39:14;14.55;;;10.02;;
33724;SDS011;20056;0.000;0.000;2022-12-18T12:41:43;15.45;;;9.68;;
33724;SDS011;20056;0.000;0.000;2022-12-18T12:44:40;18.08;;;9.50;;
33724;SDS011;20056;0.000;0.000;2022-12-18T12:47:22;13.82;;;8.77;;
33724;SDS011;20056;0.000;0.000;2022-12-18T12:49:56;15.68;;;10.45;;
33724;SDS011;20056;0.000;0.000;2022-12-18T12:57:29;13.75;;;9.63;;
33724;SDS011;20056;0.000;0.000;2022-12-18T13:00:05;13.20;;;9.50;;
33724;SDS011;20056;0.000;0.000;2022-12-18T13:05:40;18.70;;;9.93;;
33724;SDS011;20056;0.000;0.000;2022-12-18T13:08:09;17.38;;;10.18;;
33724;SDS011;20056;0.000;0.000;2022-12-18T13:10:46;13.98;;;9.45;;
33724;SDS011;20056;0.000;0.000;2022-12-18T13:13:15;13.48;;;9.82;;
33724;SDS011;20056;0.000;0.000;2022-12-18T13:15:48;20.23;;;11.07;;
33724;SDS011;20056;0.000;0.000;2022-12-18T13:18:28;15.50;;;10.63;;
33724;SDS011;20056;0.000;0.000;2022-12-18T13:25:58;15.10;;;10.20;;
33724;SDS011;20056;0.000;0.000;2022-12-18T13:34:19;13.27;;;9.85;;
33724;SDS011;20056;0.000;0.000;2022-12-18T13:36:46;13.48;;;9.63;;
33724;SDS011;20056;0.000;0.000;2022-12-18T13:46:47;13.93;;;10.20;;
33724;SDS011;20056;0.000;0.000;2022-12-18T13:51:51;17.65;;;12.30;;
33724;SDS011;20056;0.000;0.000;2022-12-18T13:54:19;16.38;;;12.13;;
33724;SDS011;20056;0.000;0.000;2022-12-18T13:57:02;17.27;;;12.40;;
33724;SDS011;20056;0.000;0.000;2022-12-18T13:59:36;16.52;;;11.80;;
33724;SDS011;20056;0.000;0.000;2022-12-18T14:02:13;18.52;;;12.48;;
33724;SDS011;20056;0.000;0.000;2022-12-18T14:04:41;20.92;;;12.10;;
33724;SDS011;20056;0.000;0.000;2022-12-18T14:07:11;17.83;;;12.85;;
33724;SDS011;20056;0.000;0.000;2022-12-18T14:09:42;16.27;;;12.00;;
33724;SDS011;20056;0.000;0.000;2022-12-18T14:12:17;17.20;;;12.55;;
33724;SDS011;20056;0.000;0.000;2022-12-18T14:17:50;20.23;;;13.68;;
33724;SDS011;20056;0.000;0.000;2022-12-18T14:20:24;17.02;;;13.27;;
33724;SDS011;20056;0.000;0.000;2022-12-18T14:22:56;19.02;;;13.38;;
33724;SDS011;20056;0.000;0.000;2022-12-18T14:25:23;25.95;;;13.77;;
33724;SDS011;20056;0.000;0.000;2022-12-18T14:27:51;19.40;;;12.98;;
33724;SDS011;20056;0.000;0.000;2022-12-18T14:33:01;17.13;;;11.35;;
33724;SDS011;20056;0.000;0.000;2022-12-18T14:35:38;25.30;;;10.57;;
33724;SDS011;20056;0.000;0.000;2022-12-18T14:40:44;17.10;;;9.75;;
33724;SDS011;20056;0.000;0.000;2022-12-18T14:43:10;13.20;;;8.90;;
33724;SDS011;20056;0.000;0.000;2022-12-18T14:45:36;12.85;;;9.02;;
33724;SDS011;20056;0.000;0.000;2022-12-18T14:48:06;14.70;;;9.30;;
33724;SDS011;20056;0.000;0.000;2022-12-18T14:50:40;15.15;;;8.88;;
33724;SDS011;20056;0.000;0.000;2022-12-18T14:53:17;14.07;;;9.20;;
33724;SDS011;20056;0.000;0.000;2022-12-18T14:55:46;13.43;;;8.85;;
33724;SDS011;20056;0.000;0.000;2022-12-18T14:58:13;12.25;;;8.70;;
33724;SDS011;20056;0.000;0.000;2022-12-18T15:00:43;13.82;;;9.38;;
33724;SDS011;20056;0.000;0.000;2022-12-18T15:03:08;14.38;;;9.40;;
33724;SDS011;20056;0.000;0.000;2022-12-18T15:05:35;15.18;;;9.80;;
33724;SDS011;20056;0.000;0.000;2022-12-18T15:08:01;11.88;;;8.48;;
33724;SDS011;20056;0.000;0.000;2022-12-18T15:10:31;14.77;;;8.75;;
33724;SDS011;20056;0.000;0.000;2022-12-18T15:17:59;13.32;;;9.35;;
33724;SDS011;20056;0.000;0.000;2022-12-18T15:20:27;16.77;;;10.05;;
33724;SDS011;20056;0.000;0.000;2022-12-18T15:22:56;14.88;;;10.20;;
33724;SDS011;20056;0.000;0.000;2022-12-18T15:25:25;14.63;;;9.70;;
33724;SDS011;20056;0.000;0.000;2022-12-18T15:28:01;17.30;;;11.38;;
33724;SDS011;20056;0.000;0.000;2022-12-18T15:30:28;14.77;;;10.38;;
33724;SDS011;20056;0.000;0.000;2022-12-18T15:33:16;13.10;;;9.38;;
33724;SDS011;20056;0.000;0.000;2022-12-18T15:35:55;14.85;;;8.27;;
33724;SDS011;20056;0.000;0.000;2022-12-18T15:38:25;14.77;;;8.63;;
33724;SDS011;20056;0.000;0.000;2022-12-18T15:40:52;12.82;;;8.43;;
33724;SDS011;20056;0.000;0.000;2022-12-18T15:43:18;14.98;;;8.20;;
33724;SDS011;20056;0.000;0.000;2022-12-18T15:45:58;12.75;;;8.52;;
33724;SDS011;20056;0.000;0.000;2022-12-18T15:48:28;12.25;;;8.32;;
33724;SDS011;20056;0.000;0.000;2022-12-18T15:50:54;13.00;;;7.20;;
33724;SDS011;20056;0.000;0.000;2022-12-18T15:53:22;12.32;;;7.35;;
33724;SDS011;20056;0.000;0.000;2022-12-18T15:55:48;13.23;;;6.93;;
33724;SDS011;20056;0.000;0.000;2022-12-18T15:58:33;11.07;;;6.47;;
33724;SDS011;20056;0.000;0.000;2022-12-18T16:00:58;8.48;;;6.40;;
33724;SDS011;20056;0.000;0.000;2022-12-18T16:03:25;9.70;;;6.07;;
33724;SDS011;20056;0.000;0.000;2022-12-18T16:05:51;12.07;;;6.75;;
33724;SDS011;20056;0.000;0.000;2022-12-18T16:08:16;10.00;;;5.95;;
33724;SDS011;20056;0.000;0.000;2022-12-18T16:10:42;12.18;;;7.30;;
33724;SDS011;20056;0.000;0.000;2022-12-18T16:13:11;11.68;;;6.78;;
33724;SDS011;20056;0.000;0.000;2022-12-18T16:15:40;8.70;;;6.63;;
33724;SDS011;20056;0.000;0.000;2022-12-18T16:18:06;9.98;;;7.18;;
33724;SDS011;20056;0.000;0.000;2022-12-18T16:20:32;10.88;;;7.32;;
33724;SDS011;20056;0.000;0.000;2022-12-18T16:22:58;10.88;;;7.43;;
33724;SDS011;20056;0.000;0.000;2022-12-18T16:25:25;10.57;;;7.28;;
33724;SDS011;20056;0.000;0.000;2022-12-18T16:27:52;10.48;;;7.28;;
33724;SDS011;20056;0.000;0.000;2022-12-18T16:30:20;10.18;;;7.10;;
33724;SDS011;20056;0.000;0.000;2022-12-18T16:32:48;10.48;;;7.07;;
33724;SDS011;20056;0.000;0.000;2022-12-18T16:35:15;11.40;;;8.18;;
33724;SDS011;20056;0.000;0.000;2022-12-18T16:37:41;9.57;;;6.97;;
33724;SDS011;20056;0.000;0.000;2022-12-18T16:40:08;9.80;;;7.13;;
33724;SDS011;20056;0.000;0.000;2022-12-18T16:42:36;9.60;;;6.97;;
33724;SDS011;20056;0.000;0.000;2022-12-18T16:45:03;11.02;;;8.02;;
33724;SDS011;20056;0.000;0.000;2022-12-18T16:47:31;11.43;;;7.18;;
33724;SDS011;20056;0.000;0.000;2022-12-18T16:49:56;9.73;;;7.32;;
33724;SDS011;20056;0.000;0.000;2022-12-18T16:52:22;10.93;;;7.65;;
33724;SDS011;20056;0.000;0.000;2022-12-18T16:54:47;9.98;;;7.57;;
33724;SDS011;20056;0.000;0.000;2022-12-18T16:57:14;10.80;;;8.10;;
33724;SDS011;20056;0.000;0.000;2022-12-18T16:59:41;9.90;;;7.38;;
33724;SDS011;20056;0.000;0.000;2022-12-18T17:02:14;9.13;;;6.82;;
33724;SDS011;20056;0.000;0.000;2022-12-18T17:04:40;9.65;;;7.13;;
33724;SDS011;20056;0.000;0.000;2022-12-18T17:07:06;12.40;;;8.73;;
33724;SDS011;20056;0.000;0.000;2022-12-18T17:09:32;10.20;;;7.72;;
33724;SDS011;20056;0.000;0.000;2022-12-18T17:11:57;9.60;;;7.22;;
33724;SDS011;20056;0.000;0.000;2022-12-18T17:14:24;10.43;;;8.20;;
33724;SDS011;20056;0.000;0.000;2022-12-18T17:16:50;9.73;;;7.45;;
33724;SDS011;20056;0.000;0.000;2022-12-18T17:19:16;9.50;;;7.20;;
33724;SDS011;20056;0.000;0.000;2022-12-18T17:21:46;12.05;;;8.30;;
33724;SDS011;20056;0.000;0.000;2022-12-18T17:24:13;9.48;;;7.30;;
33724;SDS011;20056;0.000;0.000;2022-12-18T17:26:39;10.43;;;7.70;;
33724;SDS011;20056;0.000;0.000;2022-12-18T17:29:05;10.20;;;7.78;;
33724;SDS011;20056;0.000;0.000;2022-12-18T17:31:31;9.30;;;7.57;;
33724;SDS011;20056;0.000;0.000;2022-12-18T17:33:57;9.70;;;7.88;;
33724;SDS011;20056;0.000;0.000;2022-12-18T17:36:24;10.05;;;8.02;;
33724;SDS011;20056;0.000;0.000;2022-12-18T17:38:56;10.43;;;7.53;;
33724;SDS011;20056;0.000;0.000;2022-12-18T17:41:23;11.23;;;8.40;;
33724;SDS011;20056;0.000;0.000;2022-12-18T17:43:53;12.23;;;8.10;;
33724;SDS011;20056;0.000;0.000;2022-12-18T17:46:20;11.07;;;8.18;;
33724;SDS011;20056;0.000;0.000;2022-12-18T17:48:46;12.77;;;8.18;;
33724;SDS011;20056;0.000;0.000;2022-12-18T17:51:12;11.38;;;7.88;;
33724;SDS011;20056;0.000;0.000;2022-12-18T17:53:39;10.95;;;8.00;;
33724;SDS011;20056;0.000;0.000;2022-12-18T17:56:05;11.63;;;8.73;;
33724;SDS011;20056;0.000;0.000;2022-12-18T17:58:31;11.20;;;7.57;;
33724;SDS011;20056;0.000;0.000;2022-12-18T18:00:57;10.27;;;7.90;;
33724;SDS011;20056;0.000;0.000;2022-12-18T18:03:23;10.38;;;7.65;;
33724;SDS011;20056;0.000;0.000;2022-12-18T18:05:53;13.95;;;8.48;;
33724;SDS011;20056;0.000;0.000;2022-12-18T18:08:20;11.13;;;7.97;;
33724;SDS011;20056;0.000;0.000;2022-12-18T18:10:46;11.70;;;8.43;;
33724;SDS011;20056;0.000;0.000;2022-12-18T18:13:24;11.07;;;8.35;;
33724;SDS011;20056;0.000;0.000;2022-12-18T18:16:09;12.27;;;8.70;;
33724;SDS011;20056;0.000;0.000;2022-12-18T18:18:35;9.82;;;7.00;;
33724;SDS011;20056;0.000;0.000;2022-12-18T18:21:05;8.85;;;6.88;;
33724;SDS011;20056;0.000;0.000;2022-12-18T18:23:32;9.23;;;6.57;;
33724;SDS011;20056;0.000;0.000;2022-12-18T18:26:02;7.45;;;6.05;;
33724;SDS011;20056;0.000;0.000;2022-12-18T18:28:32;7.43;;;5.72;;
33724;SDS011;20056;0.000;0.000;2022-12-18T18:30:59;12.02;;;7.78;;
33724;SDS011;20056;0.000;0.000;2022-12-18T18:33:29;12.13;;;6.20;;
33724;SDS011;20056;0.000;0.000;2022-12-18T18:35:54;9.10;;;6.32;;
33724;SDS011;20056;0.000;0.000;2022-12-18T18:38:20;12.82;;;8.02;;
33724;SDS011;20056;0.000;0.000;2022-12-18T18:40:46;11.38;;;6.93;;
33724;SDS011;20056;0.000;0.000;2022-12-18T18:43:11;11.93;;;7.28;;
33724;SDS011;20056;0.000;0.000;2022-12-18T18:45:37;10.95;;;7.13;;
33724;SDS011;20056;0.000;0.000;2022-12-18T18:48:02;11.98;;;7.00;;
33724;SDS011;20056;0.000;0.000;2022-12-18T18:50:28;9.77;;;7.05;;
33724;SDS011;20056;0.000;0.000;2022-12-18T18:52:53;10.80;;;8.07;;
33724;SDS011;20056;0.000;0.000;2022-12-18T18:55:19;11.20;;;7.32;;
33724;SDS011;20056;0.000;0.000;2022-12-18T18:57:45;10.18;;;7.13;;
33724;SDS011;20056;0.000;0.000;2022-12-18T19:00:10;10.52;;;7.55;;
33724;SDS011;20056;0.000;0.000;2022-12-18T19:02:37;11.48;;;7.32;;
33724;SDS011;20056;0.000;0.000;2022-12-18T19:05:03;13.05;;;7.32;;
33724;SDS011;20056;0.000;0.000;2022-12-18T19:07:29;14.65;;;7.47;;
33724;SDS011;20056;0.000;0.000;2022-12-18T19:09:54;12.68;;;7.07;;
33724;SDS011;20056;0.000;0.000;2022-12-18T19:12:20;14.32;;;6.55;;
33724;SDS011;20056;0.000;0.000;2022-12-18T19:15:04;13.90;;;7.20;;
33724;SDS011;20056;0.000;0.000;2022-12-18T19:17:30;14.05;;;6.68;;
33724;SDS011;20056;0.000;0.000;2022-12-18T19:19:56;15.35;;;6.72;;
33724;SDS011;20056;0.000;0.000;2022-12-18T19:22:22;9.35;;;6.65;;
33724;SDS011;20056;0.000;0.000;2022-12-18T19:24:47;11.13;;;7.43;;
33724;SDS011;20056;0.000;0.000;2022-12-18T19:27:13;11.40;;;7.20;;
33724;SDS011;20056;0.000;0.000;2022-12-18T19:29:38;10.65;;;6.15;;
33724;SDS011;20056;0.000;0.000;2022-12-18T19:32:04;12.10;;;6.97;;
33724;SDS011;20056;0.000;0.000;2022-12-18T19:34:30;9.20;;;6.32;;
33724;SDS011;20056;0.000;0.000;2022-12-18T19:36:55;7.88;;;5.20;;
33724;SDS011;20056;0.000;0.000;2022-12-18T19:39:21;8.02;;;5.65;;
33724;SDS011;20056;0.000;0.000;2022-12-18T19:41:46;8.93;;;6.00;;
33724;SDS011;20056;0.000;0.000;2022-12-18T19:44:13;9.73;;;5.57;;
33724;SDS011;20056;0.000;0.000;2022-12-18T19:46:41;10.38;;;6.32;;
33724;SDS011;20056;0.000;0.000;2022-12-18T19:49:11;8.18;;;5.72;;
33724;SDS011;20056;0.000;0.000;2022-12-18T19:51:37;9.82;;;5.82;;
33724;SDS011;20056;0.000;0.000;2022-12-18T19:54:06;8.55;;;6.18;;
33724;SDS011;20056;0.000;0.000;2022-12-18T19:56:33;9.80;;;7.20;;
33724;SDS011;20056;0.000;0.000;2022-12-18T19:58:59;14.57;;;5.88;;
33724;SDS011;20056;0.000;0.000;2022-12-18T20:01:26;8.88;;;5.95;;
33724;SDS011;20056;0.000;0.000;2022-12-18T20:03:53;8.32;;;5.78;;
33724;SDS011;20056;0.000;0.000;2022-12-18T20:06:26;8.02;;;5.82;;
33724;SDS011;20056;0.000;0.000;2022-12-18T20:08:53;7.95;;;5.65;;
33724;SDS011;20056;0.000;0.000;2022-12-18T20:11:19;9.98;;;6.00;;
33724;SDS011;20056;0.000;0.000;2022-12-18T20:13:45;10.00;;;5.70;;
33724;SDS011;20056;0.000;0.000;2022-12-18T20:16:11;9.98;;;5.95;;
33724;SDS011;20056;0.000;0.000;2022-12-18T20:18:37;14.93;;;6.40;;
33724;SDS011;20056;0.000;0.000;2022-12-18T20:21:02;7.90;;;5.80;;
33724;SDS011;20056;0.000;0.000;2022-12-18T20:23:28;7.82;;;5.80;;
33724;SDS011;20056;0.000;0.000;2022-12-18T20:25:54;9.48;;;6.40;;
33724;SDS011;20056;0.000;0.000;2022-12-18T20:28:20;7.30;;;5.43;;
33724;SDS011;20056;0.000;0.000;2022-12-18T20:30:46;8.55;;;5.63;;
33724;SDS011;20056;0.000;0.000;2022-12-18T20:33:12;6.95;;;5.63;;
33724;SDS011;20056;0.000;0.000;2022-12-18T20:35:38;9.10;;;5.82;;
33724;SDS011;20056;0.000;0.000;2022-12-18T20:38:03;7.80;;;5.50;;
33724;SDS011;20056;0.000;0.000;2022-12-18T20:40:29;9.77;;;6.32;;
33724;SDS011;20056;0.000;0.000;2022-12-18T20:42:54;9.70;;;5.80;;
33724;SDS011;20056;0.000;0.000;2022-12-18T20:45:20;8.32;;;5.43;;
33724;SDS011;20056;0.000;0.000;2022-12-18T20:47:45;7.75;;;5.45;;
33724;SDS011;20056;0.000;0.000;2022-12-18T20:50:11;7.80;;;5.47;;
33724;SDS011;20056;0.000;0.000;2022-12-18T20:52:36;7.97;;;5.72;;
33724;SDS011;20056;0.000;0.000;2022-12-18T20:55:03;7.85;;;5.25;;
33724;SDS011;20056;0.000;0.000;2022-12-18T20:57:30;7.80;;;5.60;;
33724;SDS011;20056;0.000;0.000;2022-12-18T20:59:55;8.25;;;5.40;;
33724;SDS011;20056;0.000;0.000;2022-12-18T21:02:21;7.30;;;5.22;;
33724;SDS011;20056;0.000;0.000;2022-12-18T21:04:47;6.80;;;5.25;;
33724;SDS011;20056;0.000;0.000;2022-12-18T21:07:12;7.15;;;5.47;;
33724;SDS011;20056;0.000;0.000;2022-12-18T21:09:38;8.25;;;5.78;;
33724;SDS011;20056;0.000;0.000;2022-12-18T21:12:04;7.75;;;5.20;;
33724;SDS011;20056;0.000;0.000;2022-12-18T21:14:53;8.70;;;5.22;;
33724;SDS011;20056;0.000;0.000;2022-12-18T21:17:18;11.07;;;5.70;;
33724;SDS011;20056;0.000;0.000;2022-12-18T21:19:44;8.70;;;5.35;;
33724;SDS011;20056;0.000;0.000;2022-12-18T21:22:09;9.85;;;6.05;;
33724;SDS011;20056;0.000;0.000;2022-12-18T21:24:35;12.32;;;7.13;;
33724;SDS011;20056;0.000;0.000;2022-12-18T21:27:01;11.18;;;7.22;;
33724;SDS011;20056;0.000;0.000;2022-12-18T21:29:27;11.32;;;5.70;;
33724;SDS011;20056;0.000;0.000;2022-12-18T21:31:53;11.25;;;6.40;;
33724;SDS011;20056;0.000;0.000;2022-12-18T21:34:20;11.07;;;6.07;;
33724;SDS011;20056;0.000;0.000;2022-12-18T21:36:53;11.07;;;5.68;;
33724;SDS011;20056;0.000;0.000;2022-12-18T21:39:21;10.50;;;5.40;;
33724;SDS011;20056;0.000;0.000;2022-12-18T21:41:46;10.73;;;5.95;;
33724;SDS011;20056;0.000;0.000;2022-12-18T21:44:31;7.60;;;5.65;;
33724;SDS011;20056;0.000;0.000;2022-12-18T21:46:56;10.10;;;6.57;;
33724;SDS011;20056;0.000;0.000;2022-12-18T21:49:22;10.73;;;6.43;;
33724;SDS011;20056;0.000;0.000;2022-12-18T21:51:52;12.63;;;6.53;;
33724;SDS011;20056;0.000;0.000;2022-12-18T21:54:23;14.38;;;6.25;;
33724;SDS011;20056;0.000;0.000;2022-12-18T21:56:53;12.80;;;6.55;;